Lehew, West Virginia
Current Conditions -  °F | °C
As of 4:35 PM on Wednesday 26 Nov 2014 (Local Time) from KOKV Reporting Station
Unknown Precip Unknown Precip  
Wind Chill: 32°   Ceiling: 1800
Heat Index: 36°   Visibility: 5mi
Dew Point: 32°   Wind: 5mph
Humidity: 87%   Direction: 280°W
Pressure: 29.97"   Gusts: NA
Location:  39.1793°N, 78.5026°W
Report Text: KOKV 262135Z AUTO 28004KT 5SM UP OVC018 02/00 A2997 RMK AO2 P0003
Loading
Personal Weather Stations






























Interactive Weather Map New forecast layout! Learn more

10-Day Weather Forecast

Advertisements
Track Severe Weather on mobile